createdAt,value
2022-11-22T00:01:48.591Z,53.10
2022-11-22T00:04:17.503Z,46.10
2022-11-22T00:06:46.952Z,52.00
2022-11-22T00:09:15.345Z,56.10
2022-11-22T00:11:43.800Z,58.00
2022-11-22T00:14:16.945Z,57.20
2022-11-22T00:16:45.388Z,57.60
2022-11-22T00:19:20.071Z,55.80
2022-11-22T00:21:48.480Z,61.30
2022-11-22T00:24:16.845Z,55.20
2022-11-22T00:26:45.367Z,56.20
2022-11-22T00:29:14.949Z,63.90
2022-11-22T00:31:43.384Z,56.80
2022-11-22T00:34:11.833Z,61.80
2022-11-22T00:36:40.185Z,54.70
2022-11-22T00:39:08.542Z,48.10
2022-11-22T00:41:36.908Z,54.60
2022-11-22T00:44:30.620Z,62.10
2022-11-22T00:46:59.086Z,72.90
2022-11-22T00:49:27.964Z,65.60
2022-11-22T00:51:56.561Z,63.80
2022-11-22T00:54:25.011Z,63.10
2022-11-22T00:56:53.446Z,76.90
2022-11-22T00:59:21.828Z,74.40
2022-11-22T01:01:50.278Z,74.00
2022-11-22T01:04:18.691Z,80.40
2022-11-22T01:06:47.259Z,72.40
2022-11-22T01:09:22.182Z,79.80
2022-11-22T01:11:51.565Z,64.50
2022-11-22T01:14:20.865Z,69.90
2022-11-22T01:16:49.373Z,67.60
2022-11-22T01:19:17.793Z,69.60
2022-11-22T01:21:46.231Z,72.00
2022-11-22T01:24:14.674Z,60.50
2022-11-22T01:26:43.147Z,66.40
2022-11-22T01:29:11.594Z,67.30
2022-11-22T01:31:40.001Z,71.30
2022-11-22T01:34:08.436Z,78.80
2022-11-22T01:36:36.904Z,70.10
2022-11-22T01:39:05.336Z,69.30
2022-11-22T01:41:33.833Z,67.80
2022-11-22T01:44:29.580Z,68.20
2022-11-22T01:47:11.086Z,63.40
2022-11-22T01:49:48.410Z,66.50
2022-11-22T01:52:20.108Z,59.50
2022-11-22T01:54:57.541Z,59.70
2022-11-22T01:57:30.428Z,62.00
2022-11-22T02:00:04.829Z,66.90
2022-11-22T02:02:35.198Z,73.30
2022-11-22T02:05:10.127Z,72.20
2022-11-22T02:07:53.142Z,64.20
2022-11-22T02:10:25.618Z,72.10
2022-11-22T02:12:58.308Z,77.90
2022-11-22T02:15:26.904Z,80.10
2022-11-22T02:17:57.813Z,75.90
2022-11-22T02:20:26.236Z,71.00
2022-11-22T02:23:09.524Z,67.80
2022-11-22T02:25:37.892Z,73.80
2022-11-22T02:28:06.705Z,70.30
2022-11-22T02:30:37.116Z,76.00
2022-11-22T02:33:05.514Z,72.30
2022-11-22T02:35:34.759Z,70.90
2022-11-22T02:38:22.333Z,57.60
2022-11-22T02:40:56.370Z,65.30
2022-11-22T02:43:40.473Z,55.50
2022-11-22T02:46:12.201Z,57.50
2022-11-22T02:48:44.749Z,47.60
2022-11-22T02:51:17.329Z,59.40
2022-11-22T02:53:47.795Z,54.90
2022-11-22T02:56:17.362Z,59.00
2022-11-22T02:58:46.268Z,61.30
2022-11-22T03:01:14.783Z,60.80
2022-11-22T03:03:43.212Z,57.70
2022-11-22T03:06:11.762Z,51.60
2022-11-22T03:08:40.164Z,54.70
2022-11-22T03:11:08.628Z,58.90
2022-11-22T03:13:37.107Z,59.70
2022-11-22T03:16:05.804Z,57.10
2022-11-22T03:18:35.364Z,54.90
2022-11-22T03:21:09.024Z,56.10
2022-11-22T03:23:37.505Z,60.50
2022-11-22T03:26:10.352Z,56.40
2022-11-22T03:28:38.785Z,57.70
2022-11-22T03:31:08.366Z,54.90
2022-11-22T03:33:36.762Z,46.30
2022-11-22T03:36:05.509Z,52.10
2022-11-22T03:38:35.598Z,44.30
2022-11-22T03:41:03.941Z,42.10
2022-11-22T03:44:29.740Z,45.70
2022-11-22T03:46:58.099Z,49.50
2022-11-22T03:49:26.538Z,49.60
2022-11-22T03:51:54.988Z,48.10
2022-11-22T03:54:23.348Z,45.40
2022-11-22T03:56:51.730Z,50.50
2022-11-22T03:59:20.130Z,49.80
2022-11-22T04:01:48.513Z,44.90
2022-11-22T04:04:17.052Z,42.20
2022-11-22T04:06:45.428Z,47.40
2022-11-22T04:09:13.844Z,58.70
2022-11-22T04:11:42.286Z,45.80
2022-11-22T04:14:31.562Z,53.60
2022-11-22T04:16:59.920Z,52.10
2022-11-22T04:19:28.702Z,53.20
2022-11-22T04:21:57.454Z,55.20
2022-11-22T04:24:44.172Z,58.70
2022-11-22T04:27:12.533Z,57.70
2022-11-22T04:29:40.902Z,59.70
2022-11-22T04:32:29.622Z,46.60
2022-11-22T04:34:58.083Z,49.10
2022-11-22T04:37:26.416Z,56.40
2022-11-22T04:39:54.807Z,56.30
2022-11-22T04:43:13.369Z,53.60
2022-11-22T04:45:42.039Z,68.80
2022-11-22T04:48:12.631Z,66.30
2022-11-22T04:51:00.646Z,55.00
2022-11-22T04:53:30.165Z,59.40
2022-11-22T04:55:58.855Z,59.30
2022-11-22T04:58:27.234Z,50.10
2022-11-22T05:00:55.629Z,58.60
2022-11-22T05:03:24.136Z,55.00
2022-11-22T05:05:52.566Z,57.40
2022-11-22T05:08:21.393Z,55.60
2022-11-22T05:10:58.760Z,59.00
2022-11-22T05:13:28.700Z,60.80
2022-11-22T05:15:58.009Z,63.40
2022-11-22T05:18:28.671Z,65.30
2022-11-22T05:20:57.685Z,52.10
2022-11-22T05:23:44.751Z,56.50
2022-11-22T05:26:13.117Z,58.70
2022-11-22T05:28:41.586Z,57.40
2022-11-22T05:31:12.469Z,59.70
2022-11-22T05:33:42.897Z,55.50
2022-11-22T05:36:12.751Z,63.50
2022-11-22T05:38:41.258Z,62.40
2022-11-22T05:41:13.282Z,59.00
2022-11-22T05:43:57.812Z,51.40
2022-11-22T05:46:30.944Z,63.00
2022-11-22T05:48:59.431Z,55.00
2022-11-22T05:51:34.826Z,60.70
2022-11-22T05:54:04.379Z,58.10
2022-11-22T05:56:32.820Z,58.10
2022-11-22T05:59:01.361Z,55.40
2022-11-22T06:01:29.672Z,58.50
2022-11-22T06:03:58.576Z,69.60
2022-11-22T06:06:27.000Z,59.40
2022-11-22T06:08:55.519Z,58.20
2022-11-22T06:11:26.909Z,52.80
2022-11-22T06:13:58.360Z,70.90
2022-11-22T06:16:27.933Z,64.80
2022-11-22T06:18:57.266Z,65.50
2022-11-22T06:21:26.875Z,59.30
2022-11-22T06:23:56.146Z,63.40
2022-11-22T06:26:26.823Z,63.00
2022-11-22T06:28:55.752Z,57.70
2022-11-22T06:31:26.635Z,67.10
2022-11-22T06:33:57.923Z,69.60
2022-11-22T06:36:35.676Z,73.20
2022-11-22T06:39:05.066Z,65.00
2022-11-22T06:41:36.869Z,68.30
2022-11-22T06:44:08.229Z,67.00
2022-11-22T06:46:38.059Z,71.60
2022-11-22T06:49:06.509Z,73.50
2022-11-22T06:51:35.134Z,65.80
2022-11-22T06:54:03.528Z,69.40
2022-11-22T06:56:37.021Z,75.50
2022-11-22T06:59:06.896Z,75.10
2022-11-22T07:01:36.493Z,77.00
2022-11-22T07:04:05.580Z,73.80
2022-11-22T07:06:36.313Z,70.80
2022-11-22T07:09:07.899Z,78.90
2022-11-22T07:11:36.545Z,71.80
2022-11-22T07:14:08.682Z,73.70
2022-11-22T07:16:39.193Z,60.90
2022-11-22T07:19:08.408Z,72.30
2022-11-22T07:21:37.887Z,65.60
2022-11-22T07:24:07.570Z,66.30
2022-11-22T07:26:36.031Z,63.20
2022-11-22T07:29:04.768Z,75.30
2022-11-22T07:31:33.411Z,65.40
2022-11-22T07:34:01.903Z,67.20
2022-11-22T07:36:30.671Z,53.90
2022-11-22T07:38:59.200Z,60.20
2022-11-22T07:41:27.589Z,65.00
2022-11-22T07:43:56.212Z,62.40
2022-11-22T07:46:30.004Z,54.50
2022-11-22T07:51:27.306Z,59.30
2022-11-22T07:53:56.997Z,65.60
2022-11-22T07:56:25.569Z,58.50
2022-11-22T07:58:53.939Z,58.70
2022-11-22T08:01:22.688Z,47.20
2022-11-22T08:03:51.232Z,48.40
2022-11-22T08:06:19.549Z,37.40
2022-11-22T08:08:48.023Z,49.10
2022-11-22T08:11:16.862Z,43.90
2022-11-22T08:13:45.292Z,49.20
2022-11-22T08:16:16.257Z,40.30
2022-11-22T08:18:49.398Z,48.60
2022-11-22T08:21:19.104Z,44.80
2022-11-22T08:23:48.571Z,47.90
2022-11-22T08:26:18.545Z,51.00
2022-11-22T08:28:47.020Z,40.90
2022-11-22T08:31:20.182Z,33.20
2022-11-22T08:33:49.110Z,42.20
2022-11-22T08:36:17.569Z,43.10
2022-11-22T08:38:45.953Z,43.20
2022-11-22T08:41:14.539Z,39.70
2022-11-22T08:43:43.132Z,38.10
2022-11-22T08:46:11.817Z,39.80
2022-11-22T08:48:40.246Z,44.90
2022-11-22T08:51:10.494Z,39.30
2022-11-22T08:53:41.300Z,42.00
2022-11-22T08:56:13.540Z,43.50
2022-11-22T08:58:42.591Z,41.30
2022-11-22T09:01:16.865Z,38.10
2022-11-22T09:03:45.825Z,42.10
2022-11-22T09:09:43.168Z,40.20
2022-11-22T09:11:55.357Z,40.80
2022-11-22T09:14:23.718Z,49.00
2022-11-22T09:16:52.215Z,45.30
2022-11-22T09:19:20.530Z,48.80
2022-11-22T09:21:49.114Z,44.20
2022-11-22T09:24:17.513Z,43.40
2022-11-22T09:26:45.863Z,47.50
2022-11-22T09:29:16.045Z,39.90
2022-11-22T09:31:44.583Z,53.80
2022-11-22T09:34:12.915Z,42.70
2022-11-22T09:36:41.398Z,47.40
2022-11-22T09:39:09.945Z,40.50
2022-11-22T09:41:50.246Z,42.10
2022-11-22T09:44:45.483Z,42.80
2022-11-22T09:47:34.975Z,41.80
2022-11-22T09:50:31.488Z,42.70
2022-11-22T09:53:05.187Z,38.90
2022-11-22T09:55:52.677Z,40.80
2022-11-22T09:58:51.980Z,36.40
2022-11-22T10:01:29.092Z,36.30
2022-11-22T10:04:29.266Z,43.20
2022-11-22T10:07:06.523Z,44.50
2022-11-22T10:09:51.552Z,40.10
2022-11-22T10:12:23.397Z,39.40
2022-11-22T10:15:30.963Z,42.50
2022-11-22T10:18:11.979Z,41.10
2022-11-22T10:20:48.461Z,40.40
2022-11-22T10:23:26.137Z,46.00
2022-11-22T10:25:59.906Z,40.30
2022-11-22T10:29:07.297Z,41.60
2022-11-22T10:31:44.784Z,43.60
2022-11-22T10:34:35.343Z,39.90
2022-11-22T10:37:28.450Z,45.00
2022-11-22T10:39:59.573Z,42.70
2022-11-22T10:43:20.780Z,43.30
2022-11-22T10:46:17.010Z,39.00
2022-11-22T10:49:00.086Z,40.40
2022-11-22T10:51:58.008Z,40.80
2022-11-22T10:54:36.117Z,43.80
2022-11-22T10:57:19.679Z,35.60
2022-11-22T10:59:55.540Z,42.60
2022-11-22T11:02:32.970Z,33.00
2022-11-22T11:05:05.845Z,36.40
2022-11-22T11:07:35.062Z,42.60
2022-11-22T11:10:27.547Z,40.80
2022-11-22T11:13:14.843Z,35.80
2022-11-22T11:15:52.702Z,45.00
2022-11-22T11:19:01.586Z,45.20
2022-11-22T11:21:30.053Z,39.70
2022-11-22T11:23:58.491Z,42.80
2022-11-22T11:26:34.863Z,48.60
2022-11-22T11:29:18.454Z,47.80
2022-11-22T11:31:52.542Z,40.60
2022-11-22T11:34:23.073Z,45.20
2022-11-22T11:36:54.627Z,50.40
2022-11-22T11:39:45.957Z,47.60
2022-11-22T11:42:32.202Z,50.80
2022-11-22T11:45:33.392Z,50.40
2022-11-22T11:48:01.910Z,47.90
2022-11-22T11:50:33.296Z,54.70
2022-11-22T11:53:07.211Z,54.80
2022-11-22T11:58:19.949Z,53.80
2022-11-22T12:00:48.534Z,52.40
2022-11-22T12:03:20.112Z,57.80
2022-11-22T12:05:48.592Z,49.40
2022-11-22T12:08:31.385Z,54.50
2022-11-22T12:11:06.498Z,65.70
2022-11-22T12:16:54.853Z,46.20
2022-11-22T12:19:29.288Z,59.70
2022-11-22T12:22:48.095Z,56.70
2022-11-22T12:28:23.735Z,51.40
2022-11-22T12:31:01.348Z,53.70
2022-11-22T12:33:40.310Z,59.50
2022-11-22T12:36:41.287Z,54.20
2022-11-22T12:39:16.223Z,63.00
2022-11-22T12:41:48.836Z,55.50
2022-11-22T12:44:21.042Z,56.40
2022-11-22T12:46:56.765Z,60.10
2022-11-22T12:49:48.173Z,53.10
2022-11-22T12:52:16.465Z,53.70
2022-11-22T12:55:09.646Z,55.00
2022-11-22T12:57:46.859Z,61.00
2022-11-22T13:00:19.060Z,54.80
2022-11-22T13:02:54.510Z,52.60
2022-11-22T13:05:30.835Z,59.10
2022-11-22T13:08:35.704Z,52.20
2022-11-22T13:13:42.657Z,50.00
2022-11-22T13:16:13.070Z,55.30
2022-11-22T13:18:56.716Z,61.20
2022-11-22T13:21:50.107Z,59.20
2022-11-22T13:24:46.715Z,59.80
2022-11-22T13:27:25.325Z,55.90
2022-11-22T13:29:58.690Z,55.70
2022-11-22T13:32:34.969Z,63.80
2022-11-22T13:35:12.459Z,58.60
2022-11-22T13:37:53.780Z,53.10
2022-11-22T13:40:30.414Z,64.30
2022-11-22T13:43:21.208Z,62.00
2022-11-22T13:46:02.069Z,58.60
2022-11-22T13:48:42.516Z,53.60
2022-11-22T13:51:15.638Z,51.90
2022-11-22T13:53:46.198Z,50.90
2022-11-22T13:56:17.528Z,56.00
2022-11-22T13:58:51.296Z,52.30
2022-11-22T14:01:40.540Z,54.00
2022-11-22T14:04:17.769Z,57.10
2022-11-22T14:06:49.771Z,52.50
2022-11-22T14:09:40.809Z,54.10
2022-11-22T14:12:31.984Z,55.80
2022-11-22T14:15:29.875Z,51.30
2022-11-22T14:18:07.047Z,48.30
2022-11-22T14:20:40.288Z,51.90
2022-11-22T14:23:11.616Z,53.00
2022-11-22T14:25:43.004Z,57.60
2022-11-22T14:28:20.587Z,60.00
2022-11-22T14:30:55.595Z,61.60
2022-11-22T14:33:31.220Z,63.10
2022-11-22T14:36:09.852Z,67.90
2022-11-22T14:38:40.417Z,112.60
2022-11-22T14:41:27.364Z,82.90
2022-11-22T14:44:07.650Z,95.70
2022-11-22T14:46:54.951Z,62.60
2022-11-22T14:49:33.584Z,57.70
2022-11-22T14:52:02.768Z,63.80
2022-11-22T14:54:48.800Z,69.70
2022-11-22T14:57:21.217Z,61.10
2022-11-22T15:00:18.470Z,58.50
2022-11-22T15:03:07.750Z,57.30
2022-11-22T15:09:10.284Z,53.90
2022-11-22T15:09:16.278Z,62.10
2022-11-22T15:11:52.619Z,54.00
2022-11-22T15:14:30.267Z,50.00
2022-11-22T15:58:14.098Z,55.50
2022-11-22T16:00:45.438Z,65.80
2022-11-22T16:03:27.254Z,68.20
2022-11-22T16:06:11.780Z,62.50
2022-11-22T16:08:58.319Z,63.30
2022-11-22T16:11:31.831Z,58.20
2022-11-22T16:14:01.292Z,64.30
2022-11-22T16:16:35.245Z,67.40
2022-11-22T16:19:24.878Z,69.80
2022-11-22T16:22:02.099Z,75.00
2022-11-22T16:24:32.740Z,76.30
2022-11-22T16:27:12.698Z,65.50
2022-11-22T16:29:51.838Z,68.10
2022-11-22T16:32:20.837Z,70.10
2022-11-22T16:35:21.762Z,66.10
2022-11-22T16:37:48.254Z,67.10
2022-11-22T16:40:18.676Z,46.90
2022-11-22T16:42:48.878Z,71.20
2022-11-22T16:45:20.773Z,63.70
2022-11-22T16:48:03.904Z,67.20
2022-11-22T16:50:41.949Z,67.40
2022-11-22T16:53:16.840Z,69.00
2022-11-22T16:55:45.651Z,66.40
2022-11-22T16:58:17.818Z,69.50
2022-11-22T17:00:50.878Z,66.90
2022-11-22T17:03:30.557Z,66.20
2022-11-22T17:05:59.432Z,76.20
2022-11-22T17:08:29.340Z,67.50
2022-11-22T17:10:58.552Z,67.80
2022-11-22T17:13:29.420Z,68.60
2022-11-22T17:15:59.219Z,71.10
2022-11-22T17:18:29.446Z,74.70
2022-11-22T17:21:00.155Z,74.60
2022-11-22T17:23:43.535Z,71.70
2022-11-22T17:26:13.281Z,74.70
2022-11-22T17:28:43.112Z,70.00
2022-11-22T17:31:20.167Z,76.30
2022-11-22T17:33:52.740Z,77.10
2022-11-22T17:36:35.782Z,64.30
2022-11-22T17:41:50.984Z,70.90
2022-11-22T17:45:02.851Z,81.70
2022-11-22T17:47:33.258Z,69.20
2022-11-22T17:50:03.725Z,69.70
2022-11-22T17:52:33.490Z,76.70
2022-11-22T17:55:06.278Z,80.20
2022-11-22T17:57:37.956Z,73.70
2022-11-22T18:00:10.941Z,80.70
2022-11-22T18:02:47.043Z,66.80
2022-11-22T18:05:17.377Z,83.60
2022-11-22T18:07:48.319Z,76.60
2022-11-22T18:10:17.959Z,75.40
2022-11-22T18:13:13.516Z,78.80
2022-11-22T18:15:39.550Z,72.60
2022-11-22T18:18:21.938Z,73.00
2022-11-22T18:21:01.670Z,85.20
2022-11-22T18:23:36.737Z,74.00
2022-11-22T18:29:39.094Z,85.10
2022-11-22T18:31:56.072Z,63.50
2022-11-22T18:34:26.600Z,76.80
2022-11-22T18:37:01.277Z,79.40
2022-11-22T18:39:39.273Z,75.70
2022-11-22T18:42:15.847Z,79.60
2022-11-22T18:44:46.367Z,75.60
2022-11-22T18:47:16.703Z,78.40
2022-11-22T18:52:50.212Z,84.00
2022-11-22T18:55:20.521Z,79.70
2022-11-22T18:58:03.706Z,83.00
2022-11-22T19:00:33.365Z,92.00
2022-11-22T19:03:05.848Z,81.10
2022-11-22T19:05:35.495Z,76.50
2022-11-22T19:08:04.144Z,65.80
2022-11-22T19:10:34.184Z,71.80
2022-11-22T19:13:04.582Z,73.50
2022-11-22T19:15:36.472Z,79.00
2022-11-22T19:18:10.804Z,77.00
2022-11-22T19:20:54.705Z,70.50
2022-11-22T19:23:24.782Z,72.70
2022-11-22T19:25:54.667Z,63.50
2022-11-22T19:28:32.704Z,79.40
2022-11-22T19:31:10.673Z,72.90
2022-11-22T19:33:43.445Z,71.40
2022-11-22T19:36:18.416Z,76.80
2022-11-22T19:38:48.611Z,61.90
2022-11-22T19:41:22.526Z,78.40
2022-11-22T19:43:52.923Z,73.40
2022-11-22T19:46:24.320Z,83.20
2022-11-22T19:48:57.375Z,73.40
2022-11-22T19:51:29.909Z,80.40
2022-11-22T19:54:05.390Z,77.50
2022-11-22T19:56:39.126Z,68.00
2022-11-22T19:59:16.062Z,66.30
2022-11-22T20:01:47.068Z,71.10
2022-11-22T20:04:17.792Z,62.80
2022-11-22T20:06:50.120Z,67.80
2022-11-22T20:09:30.097Z,61.70
2022-11-22T20:12:00.099Z,66.90
2022-11-22T20:14:30.328Z,68.00
2022-11-22T20:17:00.616Z,63.00
2022-11-22T20:19:34.205Z,61.60
2022-11-22T20:22:04.507Z,55.10
2022-11-22T20:24:35.236Z,67.80
2022-11-22T20:27:06.200Z,59.50
2022-11-22T20:29:38.169Z,65.90
2022-11-22T20:32:08.438Z,65.80
2022-11-22T20:34:37.741Z,67.50
2022-11-22T20:37:07.792Z,63.00
2022-11-22T20:39:38.463Z,61.50
2022-11-22T20:42:32.973Z,66.20
2022-11-22T20:44:59.274Z,60.30
2022-11-22T20:47:31.420Z,67.90
2022-11-22T20:50:00.912Z,64.10
2022-11-22T20:52:30.512Z,68.90
2022-11-22T20:55:04.807Z,78.20
2022-11-22T20:57:35.703Z,70.60
2022-11-22T21:00:05.547Z,69.50
2022-11-22T21:02:35.488Z,67.20
2022-11-22T21:05:04.468Z,63.30
2022-11-22T21:07:34.338Z,63.40
2022-11-22T21:10:05.233Z,66.70
2022-11-22T21:12:34.030Z,67.30
2022-11-22T21:15:03.113Z,65.20
2022-11-22T21:17:56.045Z,62.20
2022-11-22T21:20:21.837Z,67.20
2022-11-22T21:22:54.364Z,59.80
2022-11-22T21:25:23.325Z,73.90
2022-11-22T21:27:52.456Z,67.80
2022-11-22T21:30:22.034Z,70.60
2022-11-22T21:32:51.022Z,71.20
2022-11-22T21:35:19.462Z,67.80
2022-11-22T21:37:47.891Z,70.40
2022-11-22T21:40:16.355Z,77.40
2022-11-22T21:43:10.200Z,66.30
2022-11-22T21:45:38.681Z,73.10
2022-11-22T21:48:07.888Z,70.80
2022-11-22T21:50:36.326Z,73.90
2022-11-22T21:53:05.334Z,64.10
2022-11-22T21:55:33.794Z,69.30
2022-11-22T21:58:02.456Z,73.30
2022-11-22T22:00:30.980Z,67.10
2022-11-22T22:02:59.343Z,69.70
2022-11-22T22:05:27.860Z,76.60
2022-11-22T22:07:56.250Z,72.20
2022-11-22T22:10:24.752Z,67.90
2022-11-22T22:12:53.153Z,66.20
2022-11-22T22:15:21.648Z,57.70
2022-11-22T22:17:53.867Z,65.20
2022-11-22T22:20:23.172Z,59.00
2022-11-22T22:22:51.609Z,69.60
2022-11-22T22:25:20.010Z,67.30
2022-11-22T22:27:48.531Z,73.50
2022-11-22T22:30:17.208Z,70.90
2022-11-22T22:32:45.536Z,73.10
2022-11-22T22:35:13.899Z,74.20
2022-11-22T22:37:42.284Z,71.10
2022-11-22T22:40:11.023Z,70.50
2022-11-22T22:42:40.546Z,65.70
2022-11-22T22:45:11.257Z,70.90
2022-11-22T22:47:39.701Z,72.50
2022-11-22T22:50:08.378Z,70.50
2022-11-22T22:52:36.918Z,69.40
2022-11-22T22:55:05.755Z,73.10
2022-11-22T22:57:34.158Z,73.90
2022-11-22T23:00:02.713Z,78.50
2022-11-22T23:02:31.122Z,75.20
2022-11-22T23:05:13.287Z,70.20
2022-11-22T23:07:44.009Z,75.30
2022-11-22T23:10:12.641Z,81.80
2022-11-22T23:12:41.186Z,72.70
2022-11-22T23:15:10.055Z,82.80
2022-11-22T23:17:38.386Z,68.50
2022-11-22T23:20:07.272Z,77.70
2022-11-22T23:22:35.656Z,78.80
2022-11-22T23:25:04.365Z,75.20
2022-11-22T23:27:33.167Z,71.70
2022-11-22T23:30:01.635Z,77.80
2022-11-22T23:32:31.845Z,78.00
2022-11-22T23:35:00.255Z,80.20
2022-11-22T23:37:28.633Z,55.70
2022-11-22T23:39:57.102Z,86.90
2022-11-22T23:42:25.436Z,81.60
2022-11-22T23:45:19.095Z,78.40
2022-11-22T23:47:51.099Z,80.60
2022-11-22T23:50:20.363Z,80.30
2022-11-22T23:52:54.394Z,77.70
2022-11-22T23:55:22.748Z,77.40
2022-11-22T23:57:51.158Z,82.80
